Time;durP1;ratioP1;P1;durP2;ratioP2;P2;SDS_P1;SDS_P2;PMS_P1;PMS_P2;Temp;Humidity;BMP_temperature;BMP_pressure;BME280_temperature;BME280_humidity;BME280_pressure;Samples;Min_cycle;Max_cycle;Signal;HPM_P1;HPM_P2
2022/08/20 00:01:48;;;;;;;8.80;5.65;;;;;;;25.00;62.51;100358.29;1814234;78;25749;-76
2022/08/20 00:04:14;;;;;;;8.83;5.70;;;;;;;24.96;62.64;100361.31;1809104;78;25766;-76
2022/08/20 00:06:40;;;;;;;10.18;5.92;;;;;;;24.94;62.74;100358.87;1817717;78;25791;-76
2022/08/20 00:09:07;;;;;;;9.40;5.80;;;;;;;24.94;62.84;100360.78;1815582;78;27445;-77
2022/08/20 00:11:34;;;;;;;11.43;5.62;;;;;;;24.94;62.92;100359.41;1810440;78;25744;-76
2022/08/20 00:14:03;;;;;;;10.90;5.45;;;;;;;24.93;63.04;100361.91;1817540;78;25799;-76
2022/08/20 00:16:35;;;;;;;10.53;6.95;;;;;;;24.85;62.93;100350.98;1810269;78;26248;-76
2022/08/20 00:19:06;;;;;;;10.95;5.67;;;;;;;24.80;63.03;100351.05;1809026;78;25738;-76
2022/08/20 00:21:32;;;;;;;;;;;;;;;24.78;63.28;100355.17;1815494;78;27539;-76
2022/08/20 00:23:59;;;;;;;9.15;5.33;;;;;;;24.75;63.34;100351.63;1813268;78;26324;-75
2022/08/20 00:26:25;;;;;;;12.37;5.62;;;;;;;24.70;63.40;100352.45;1807152;78;25824;-76
2022/08/20 00:28:52;;;;;;;9.63;6.05;;;;;;;24.71;63.62;100342.31;1816551;78;25767;-76
2022/08/20 00:31:21;;;;;;;10.72;6.70;;;;;;;24.70;63.50;100343.44;1820600;78;25754;-76
2022/08/20 00:33:48;;;;;;;14.10;6.65;;;;;;;24.68;63.65;100341.53;1827507;78;27462;-76
2022/08/20 00:36:16;;;;;;;9.65;6.67;;;;;;;24.66;63.74;100336.32;1827386;78;25707;-76
2022/08/20 00:38:45;;;;;;;13.68;6.33;;;;;;;24.65;63.87;100335.24;1819788;78;26504;-75
2022/08/20 00:41:20;;;;;;;12.25;6.05;;;;;;;24.62;63.82;100334.44;1828607;78;26096;-76
2022/08/20 00:44:12;;;;;;;9.70;6.03;;;;;;;24.58;63.83;100330.62;1798563;79;26204;-76
2022/08/20 00:46:41;;;;;;;12.23;6.47;;;;;;;24.56;63.99;100332.30;1798038;79;27504;-76
2022/08/20 00:49:12;;;;;;;7.12;6.17;;;;;;;24.53;64.11;100335.05;1820500;77;25960;-76
2022/08/20 00:51:59;;;;;;;8.65;6.05;;;;;;;24.55;64.20;100337.48;1809017;78;26070;-75
2022/08/20 00:54:51;;;;;;;8.30;5.50;;;;;;;24.55;64.29;100337.48;1798327;78;25827;-76
2022/08/20 00:57:25;;;;;;;10.40;6.08;;;;;;;24.55;64.37;100342.17;1790404;79;25807;-76
2022/08/20 00:59:52;;;;;;;14.28;6.22;;;;;;;24.56;64.41;100343.25;1830766;77;27459;-76
2022/08/20 01:02:24;;;;;;;11.10;6.42;;;;;;;24.56;64.43;100330.09;1801448;78;25748;-76
2022/08/20 01:04:53;;;;;;;13.00;6.55;;;;;;;24.57;64.45;100322.16;1822921;78;25703;-76
2022/08/20 01:07:19;;;;;;;11.08;6.03;;;;;;;24.57;64.46;100317.52;1819930;78;25774;-76
2022/08/20 01:09:47;;;;;;;10.35;6.08;;;;;;;24.58;64.51;100309.55;1823339;78;25939;-76
2022/08/20 01:12:16;;;;;;;9.95;5.75;;;;;;;24.59;64.55;100308.45;1823515;78;27440;-76
2022/08/20 01:14:44;;;;;;;9.90;5.75;;;;;;;24.58;64.49;100307.35;1793920;78;26395;-76
2022/08/20 01:17:16;;;;;;;9.23;5.80;;;;;;;24.58;64.56;100314.20;1801855;78;25998;-76
2022/08/20 01:19:47;;;;;;;11.55;6.12;;;;;;;24.58;64.60;100304.61;1823513;78;25930;-76
2022/08/20 01:25:15;;;;;;;16.77;6.85;;;;;;;24.55;64.81;100301.89;1798760;79;28397;-76
2022/08/20 01:27:43;;;;;;;13.08;6.33;;;;;;;24.49;64.89;100297.02;1814716;78;25729;-76
2022/08/20 01:30:10;;;;;;;13.18;6.70;;;;;;;24.46;65.00;100283.88;1798345;79;25797;-76
2022/08/20 01:32:37;;;;;;;11.15;6.62;;;;;;;24.43;65.06;100285.84;1803853;78;25786;-76
2022/08/20 01:35:04;;;;;;;12.05;6.67;;;;;;;24.43;65.11;100288.58;1814946;78;25706;-76
2022/08/20 01:37:30;;;;;;;9.48;5.97;;;;;;;24.44;65.11;100285.30;1809353;78;27430;-75
2022/08/20 01:39:58;;;;;;;9.78;6.85;;;;;;;24.41;65.48;100286.68;1807853;78;25904;-76
2022/08/20 01:42:37;;;;;;;14.40;6.25;;;;;;;24.36;65.38;100279.86;1821025;78;25814;-76
2022/08/20 01:45:05;;;;;;;15.45;6.92;;;;;;;24.34;65.48;100278.50;1817510;78;25827;-76
2022/08/20 01:47:33;;;;;;;13.65;5.90;;;;;;;24.27;65.64;100269.23;1819924;78;25708;-75
2022/08/20 01:50:07;;;;;;;12.88;6.62;;;;;;;24.23;65.84;100272.86;1818014;78;27393;-76
2022/08/20 01:52:42;;;;;;;9.45;6.08;;;;;;;24.22;65.97;100269.84;1813611;78;25655;-76
2022/08/20 01:55:09;;;;;;;11.28;6.58;;;;;;;24.18;66.09;100270.97;1813142;78;26047;-76
2022/08/20 01:57:37;;;;;;;14.25;6.50;;;;;;;24.14;66.27;100290.44;1818306;78;25779;-76
2022/08/20 02:00:12;;;;;;;7.70;6.35;;;;;;;24.06;66.39;100331.25;1817564;78;25757;-76
2022/08/20 02:02:39;;;;;;;9.30;6.17;;;;;;;23.96;66.77;100326.61;1824167;78;28273;-75
2022/08/20 02:05:06;;;;;;;9.40;6.75;;;;;;;23.93;67.03;100306.63;1821174;78;25873;-76
2022/08/20 02:07:33;;;;;;;8.68;6.37;;;;;;;23.96;67.22;100317.57;1820356;78;25696;-76
2022/08/20 02:09:59;;;;;;;10.55;6.60;;;;;;;23.95;67.30;100315.37;1823432;78;26458;-76
2022/08/20 02:12:27;;;;;;;12.63;6.40;;;;;;;23.95;67.47;100303.06;1814985;78;25950;-77
2022/08/20 02:14:54;;;;;;;10.55;6.35;;;;;;;23.92;67.58;100306.92;1819532;78;28279;-77
2022/08/20 02:17:24;;;;;;;14.25;5.92;;;;;;;23.90;67.74;100299.55;1816882;78;25918;-75
2022/08/20 02:20:01;;;;;;;10.48;6.47;;;;;;;23.88;67.89;100279.33;1805575;78;25846;-76
2022/08/20 02:22:51;;;;;;;18.10;6.28;;;;;;;23.81;68.04;100259.66;1821314;78;25820;-76
2022/08/20 02:25:21;;;;;;;10.78;6.33;;;;;;;23.73;68.21;100252.88;1819828;78;25885;-76
2022/08/20 02:27:51;;;;;;;9.83;5.97;;;;;;;23.66;68.45;100253.72;1811671;78;27457;-76
2022/08/20 02:30:23;;;;;;;8.30;6.60;;;;;;;23.60;68.61;100256.22;1817281;78;25762;-76
2022/08/20 02:32:50;;;;;;;12.50;6.47;;;;;;;23.57;68.78;100257.30;1821006;78;25787;-76
2022/08/20 02:35:17;;;;;;;13.88;6.42;;;;;;;23.53;68.96;100243.93;1814005;78;25748;-76
2022/08/20 02:37:45;;;;;;;12.40;6.30;;;;;;;23.49;69.08;100240.95;1820420;78;25702;-76
2022/08/20 02:40:16;;;;;;;6.95;5.90;;;;;;;23.47;69.37;100239.05;1811290;78;27433;-76
2022/08/20 02:42:43;;;;;;;10.20;6.25;;;;;;;23.45;69.46;100238.51;1819796;78;25893;-76
2022/08/20 02:45:14;;;;;;;10.50;6.53;;;;;;;23.45;69.60;100243.15;1820169;78;25745;-76
2022/08/20 02:47:43;;;;;;;15.13;6.22;;;;;;;23.44;69.75;100246.42;1793502;79;25768;-76
2022/08/20 02:50:14;;;;;;;13.08;6.75;;;;;;;23.45;69.87;100248.08;1793593;79;26117;-75
2022/08/20 02:52:41;;;;;;;12.00;6.87;;;;;;;23.45;69.96;100244.52;1795520;79;28328;-75
2022/08/20 02:55:09;;;;;;;12.18;6.65;;;;;;;23.42;70.05;100243.16;1793253;79;25701;-76
2022/08/20 02:57:37;;;;;;;9.65;7.17;;;;;;;23.41;70.06;100248.38;1803085;79;25719;-75
2022/08/20 03:00:15;;;;;;;11.90;7.65;;;;;;;23.39;70.31;100251.93;1785402;79;25768;-76
2022/08/20 03:02:41;;;;;;;10.63;6.92;;;;;;;23.38;70.24;100251.65;1798085;78;25629;-76
2022/08/20 03:05:09;;;;;;;12.30;7.33;;;;;;;23.38;70.29;100259.84;1791256;79;27913;-76
2022/08/20 03:07:50;;;;;;;13.35;7.00;;;;;;;23.40;70.28;100269.12;1803646;79;25791;-76
2022/08/20 03:10:16;;;;;;;8.85;6.55;;;;;;;23.39;70.34;100258.77;1796105;79;25709;-75
2022/08/20 03:12:43;;;;;;;13.60;8.15;;;;;;;23.41;70.31;100258.48;1796401;79;25728;-75
2022/08/20 03:15:10;;;;;;;16.55;7.60;;;;;;;23.41;70.29;100256.57;1796430;79;28262;-75
2022/08/20 03:17:36;;;;;;;18.35;7.12;;;;;;;23.42;70.26;100257.36;1793082;78;27433;-75
2022/08/20 03:20:08;;;;;;;10.90;6.87;;;;;;;23.45;70.36;100261.74;1796249;78;25802;-76
2022/08/20 03:22:35;;;;;;;13.72;6.70;;;;;;;23.45;70.38;100257.64;1793011;79;25750;-75
2022/08/20 03:25:01;;;;;;;10.32;7.25;;;;;;;23.46;70.50;100249.70;1797050;78;25894;-76
2022/08/20 03:27:28;;;;;;;16.60;7.75;;;;;;;23.46;70.55;100253.00;1802562;79;25724;-75
2022/08/20 03:29:54;;;;;;;11.38;6.75;;;;;;;23.44;70.52;100256.00;1794315;79;27432;-76
2022/08/20 03:32:20;;;;;;;8.28;7.10;;;;;;;23.44;70.55;100255.17;1800141;79;26118;-75
2022/08/20 03:34:47;;;;;;;12.65;7.65;;;;;;;23.44;70.70;100250.52;1800009;78;25814;-76
2022/08/20 03:37:13;;;;;;;12.98;7.22;;;;;;;23.42;70.81;100253.27;1794341;79;25877;-75
2022/08/20 03:39:39;;;;;;;10.18;7.03;;;;;;;23.40;70.81;100252.19;1797726;79;25782;-75
2022/08/20 03:42:06;;;;;;;14.13;9.25;;;;;;;23.41;70.89;100247.00;1794603;78;27443;-76
2022/08/20 03:44:35;;;;;;;14.43;10.55;;;;;;;23.39;71.01;100251.93;1821500;78;26420;-75
2022/08/20 03:47:06;;;;;;;22.30;12.25;;;;;;;23.38;71.13;100258.48;1821536;78;25680;-76
2022/08/20 03:49:34;;;;;;;17.42;10.68;;;;;;;23.34;71.21;100263.41;1817890;78;26572;-76
2022/08/20 03:52:03;;;;;;;11.05;8.50;;;;;;;23.28;71.16;100253.03;1823283;78;25763;-76
2022/08/20 03:54:29;;;;;;;10.05;8.10;;;;;;;23.26;71.27;100240.73;1817430;77;27412;-75
2022/08/20 03:56:56;;;;;;;17.23;7.37;;;;;;;23.23;71.41;100246.20;1802608;78;25820;-76
2022/08/20 03:59:23;;;;;;;10.50;7.10;;;;;;;23.20;71.68;100251.41;1814691;78;26408;-76
2022/08/20 04:01:49;;;;;;;12.47;7.50;;;;;;;23.17;71.72;100251.95;1821615;77;26713;-76
2022/08/20 04:04:15;;;;;;;13.15;7.37;;;;;;;23.20;71.90;100253.61;1808691;78;25881;-76
2022/08/20 04:06:42;;;;;;;13.08;7.50;;;;;;;23.21;71.89;100251.13;1819122;77;27921;-76
2022/08/20 04:09:10;;;;;;;8.95;7.28;;;;;;;23.21;72.02;100248.94;1808786;77;25666;-76
2022/08/20 04:11:36;;;;;;;15.20;7.87;;;;;;;23.20;72.07;100245.41;1800735;78;25745;-76
2022/08/20 04:14:03;;;;;;;12.25;7.72;;;;;;;23.19;72.11;100245.66;1801571;77;25926;-75
2022/08/20 04:16:29;;;;;;;15.23;8.35;;;;;;;23.16;72.21;100259.91;1797636;77;25835;-76
2022/08/20 04:18:55;;;;;;;11.43;7.53;;;;;;;23.14;72.17;100260.16;1807751;77;28238;-76
2022/08/20 04:21:21;;;;;;;14.63;7.60;;;;;;;23.13;72.36;100264.00;1805095;77;25725;-76
2022/08/20 04:23:48;;;;;;;11.12;7.42;;;;;;;23.12;72.42;100267.02;1798860;77;26070;-76
2022/08/20 04:26:15;;;;;;;10.35;7.65;;;;;;;23.15;72.58;100271.37;1808768;77;25758;-76
2022/08/20 04:28:41;;;;;;;14.30;7.53;;;;;;;23.16;72.54;100272.20;1800207;77;25907;-76
2022/08/20 04:31:07;;;;;;;12.80;7.60;;;;;;;23.16;72.65;100272.20;1808798;77;28788;-76
2022/08/20 04:33:34;;;;;;;23.35;8.78;;;;;;;23.12;72.72;100269.17;1808986;77;25561;-76
2022/08/20 04:36:01;;;;;;;14.18;7.75;;;;;;;23.13;72.88;100264.54;1813307;77;25739;-75
2022/08/20 04:38:29;;;;;;;12.50;7.58;;;;;;;23.11;72.97;100262.09;1802239;78;25754;-75
2022/08/20 04:40:57;;;;;;;9.75;6.47;;;;;;;23.14;73.18;100258.79;1814375;77;25807;-75
2022/08/20 04:43:33;;;;;;;10.93;7.62;;;;;;;23.18;73.53;100271.37;1825802;75;27500;-75
2022/08/20 04:46:05;;;;;;;17.50;8.40;;;;;;;23.25;73.55;100272.70;1842277;75;25854;-75
2022/08/20 04:48:32;;;;;;;15.88;7.90;;;;;;;23.28;73.28;100272.16;1832057;75;26433;-76
2022/08/20 04:51:01;;;;;;;16.65;7.03;;;;;;;23.33;73.44;100267.26;1832262;77;25772;-75
2022/08/20 04:53:28;;;;;;;11.00;7.80;;;;;;;23.40;73.35;100269.95;1848139;75;26433;-75
2022/08/20 04:55:58;;;;;;;12.63;7.95;;;;;;;23.50;73.29;100273.22;1826187;75;27448;-75
2022/08/20 04:58:32;;;;;;;;;;;;;;;23.55;73.20;100275.91;1832846;77;26439;-76
2022/08/20 05:01:04;;;;;;;10.95;7.53;;;;;;;23.60;73.22;100275.90;1818075;77;26448;-75
2022/08/20 05:03:31;;;;;;;14.75;8.25;;;;;;;23.61;73.12;100273.41;1843507;77;26106;-76
2022/08/20 05:06:00;;;;;;;13.88;7.40;;;;;;;23.67;73.11;100277.79;1829507;75;25768;-75
2022/08/20 05:08:28;;;;;;;10.68;7.62;;;;;;;23.70;73.03;100283.50;1833900;77;27416;-76
2022/08/20 05:10:56;;;;;;;13.85;7.70;;;;;;;23.78;73.03;100283.45;1839754;75;25996;-75
2022/08/20 05:13:24;;;;;;;14.33;8.25;;;;;;;23.84;73.08;100279.62;1805317;78;25764;-75
2022/08/20 05:15:51;;;;;;;11.80;6.97;;;;;;;23.88;72.88;100282.06;1831876;77;25801;-75
2022/08/20 05:18:23;;;;;;;11.88;7.53;;;;;;;23.91;72.69;100276.58;1834928;77;25866;-75
2022/08/20 05:20:50;;;;;;;12.30;7.40;;;;;;;23.95;72.81;100271.61;1832872;77;27524;-75
2022/08/20 05:23:19;;;;;;;12.35;8.08;;;;;;;23.98;72.75;100266.95;1835559;77;25696;-75
2022/08/20 05:25:51;;;;;;;12.63;7.60;;;;;;;24.03;72.75;100268.84;1835924;77;25741;-75
2022/08/20 05:28:22;;;;;;;11.15;7.72;;;;;;;24.04;72.47;100266.35;1834929;77;25806;-75
2022/08/20 05:30:51;;;;;;;15.25;7.92;;;;;;;24.07;72.41;100281.70;1833304;77;25891;-75
2022/08/20 05:33:20;;;;;;;9.55;7.03;;;;;;;24.09;72.38;100283.61;1831677;77;27495;-76
2022/08/20 05:35:49;;;;;;;12.95;7.17;;;;;;;24.11;72.66;100281.41;1832541;76;25865;-76
2022/08/20 05:38:18;;;;;;;13.65;7.40;;;;;;;24.14;72.84;100282.77;1798885;78;25927;-75
2022/08/20 05:40:45;;;;;;;14.43;7.78;;;;;;;24.16;73.03;100284.66;1816270;77;25784;-75
2022/08/20 05:43:12;;;;;;;14.87;7.47;;;;;;;24.18;73.01;100282.46;1837826;77;26094;-75
2022/08/20 05:45:40;;;;;;;11.95;7.15;;;;;;;24.18;73.10;100280.55;1829823;77;28320;-75
2022/08/20 05:48:12;;;;;;;14.70;7.72;;;;;;;24.18;73.22;100275.08;1840599;77;26370;-75
2022/08/20 05:50:41;;;;;;;10.75;8.03;;;;;;;24.19;73.17;100279.97;1804092;77;25783;-75
2022/08/20 05:53:08;;;;;;;13.72;7.90;;;;;;;24.20;73.21;100283.81;1820983;77;25880;-76
2022/08/20 05:55:38;;;;;;;12.33;7.45;;;;;;;24.18;73.22;100284.66;1809748;78;26486;-75
2022/08/20 05:58:08;;;;;;;13.48;7.45;;;;;;;24.17;73.25;100284.92;1814989;78;28299;-75
2022/08/20 06:00:36;;;;;;;12.73;8.18;;;;;;;24.16;73.48;100285.48;1813174;78;25839;-75
2022/08/20 06:05:47;;;;;;;13.65;7.50;;;;;;;24.11;73.86;100294.27;1800155;79;25790;-75
2022/08/20 06:08:13;;;;;;;8.68;7.12;;;;;;;24.06;74.10;100292.95;1814925;78;26386;-75
2022/08/20 06:10:40;;;;;;;12.80;7.78;;;;;;;24.03;74.29;100295.66;1810018;78;28249;-75
2022/08/20 06:13:06;;;;;;;10.38;7.55;;;;;;;24.03;74.50;100298.39;1824329;78;25984;-75
2022/08/20 06:15:34;;;;;;;13.55;8.30;;;;;;;24.04;74.65;100289.10;1819890;78;25741;-75
2022/08/20 06:18:01;;;;;;;11.10;8.23;;;;;;;24.05;74.64;100291.30;1817565;78;26538;-75
2022/08/20 06:20:27;;;;;;;13.88;8.95;;;;;;;24.03;74.66;100287.99;1810188;78;25922;-75
2022/08/20 06:22:55;;;;;;;9.83;7.22;;;;;;;24.01;74.76;100288.83;1819228;78;27464;-76
2022/08/20 06:25:21;;;;;;;9.60;7.70;;;;;;;24.00;74.87;100290.73;1819447;78;25728;-75
2022/08/20 06:27:47;;;;;;;15.13;7.92;;;;;;;24.00;74.76;100295.39;1810870;78;25795;-76
2022/08/20 06:30:15;;;;;;;12.40;7.22;;;;;;;23.99;74.66;100292.40;1820329;78;26441;-75
2022/08/20 06:32:42;;;;;;;11.88;8.83;;;;;;;23.96;74.58;100297.87;1812954;78;25713;-75
2022/08/20 06:35:10;;;;;;;14.75;8.65;;;;;;;23.96;74.60;100304.72;1823020;78;28218;-76
2022/08/20 06:37:39;;;;;;;10.68;7.62;;;;;;;23.97;74.89;100309.64;1818796;78;25716;-75
2022/08/20 06:40:13;;;;;;;10.18;8.23;;;;;;;23.96;75.30;100311.56;1815374;78;25732;-75
2022/08/20 06:42:44;;;;;;;18.90;9.93;;;;;;;23.95;75.40;100309.91;1804754;78;25904;-75
2022/08/20 06:45:11;;;;;;;13.48;9.05;;;;;;;23.92;75.68;100314.59;1815220;78;25815;-75
2022/08/20 06:47:41;;;;;;;12.58;9.28;;;;;;;23.90;75.84;100315.97;1819316;78;28251;-75
2022/08/20 06:50:15;;;;;;;16.55;10.15;;;;;;;23.92;75.92;100311.03;1819000;78;26298;-76
2022/08/20 06:52:42;;;;;;;14.05;9.93;;;;;;;23.93;76.05;100312.11;1788405;79;25727;-75
2022/08/20 06:55:11;;;;;;;19.02;9.90;;;;;;;23.95;76.10;100305.02;1810935;78;25912;-75
2022/08/20 06:57:38;;;;;;;21.12;11.55;;;;;;;23.97;76.27;100304.17;1791813;78;25725;-75
2022/08/20 07:00:10;;;;;;;10.28;9.18;;;;;;;23.97;76.74;100293.23;1776148;79;27448;-76
2022/08/20 07:02:36;;;;;;;11.38;8.63;;;;;;;23.97;77.36;100301.44;1779252;79;25879;-75
2022/08/20 07:05:04;;;;;;;15.20;9.35;;;;;;;23.91;77.45;100294.36;1784821;79;26403;-75
2022/08/20 07:07:30;;;;;;;11.33;9.55;;;;;;;23.85;77.54;100295.47;1768773;79;26620;-75
2022/08/20 07:10:01;;;;;;;10.82;9.48;;;;;;;23.86;77.93;100302.05;1795581;79;25937;-76
2022/08/20 07:12:28;;;;;;;13.35;9.65;;;;;;;23.85;77.97;100294.92;1792233;79;28369;-75
2022/08/20 07:14:54;;;;;;;14.28;10.55;;;;;;;23.85;78.03;100292.19;1791464;79;26456;-75
2022/08/20 07:17:20;;;;;;;15.55;10.38;;;;;;;23.85;78.17;100281.78;1788246;79;25747;-75
2022/08/20 07:19:46;;;;;;;15.00;10.58;;;;;;;23.86;78.35;100280.16;1789441;79;26173;-76
2022/08/20 07:22:13;;;;;;;15.60;10.63;;;;;;;23.86;78.24;100279.33;1784935;79;25661;-75
2022/08/20 07:24:39;;;;;;;10.88;9.08;;;;;;;23.82;78.12;100283.19;1786342;79;27400;-76
2022/08/20 07:27:06;;;;;;;16.10;9.70;;;;;;;23.84;78.22;100287.00;1789455;78;26368;-76
2022/08/20 07:35:09;;;;;;;35.98;16.15;;;;;;;23.94;78.78;100269.98;1788601;79;25772;-75
2022/08/20 07:37:41;;;;;;;19.73;10.70;;;;;;;23.98;78.97;100266.95;1779393;79;28751;-75
2022/08/20 07:40:13;;;;;;;18.98;10.80;;;;;;;23.99;78.60;100258.20;1787140;79;25713;-75
2022/08/20 07:42:40;;;;;;;12.28;10.45;;;;;;;24.03;78.94;100263.37;1790344;79;25993;-75
2022/08/20 07:45:09;;;;;;;16.37;11.05;;;;;;;24.03;79.12;100261.45;1807487;78;25810;-75
2022/08/20 07:47:38;;;;;;;14.85;11.45;;;;;;;24.08;79.01;100263.38;1816208;78;25703;-75
2022/08/20 07:50:07;;;;;;;16.77;9.65;;;;;;;24.05;78.56;100268.03;1819942;78;28260;-75
2022/08/20 07:52:38;;;;;;;11.30;9.43;;;;;;;24.05;78.63;100265.30;1799041;77;25841;-75
2022/08/20 07:55:06;;;;;;;16.67;9.83;;;;;;;24.05;78.63;100272.14;1828233;77;25262;-76
2022/08/20 07:57:33;;;;;;;15.08;10.32;;;;;;;24.06;78.77;100275.95;1810267;78;26635;-76
2022/08/20 07:59:59;;;;;;;16.23;10.53;;;;;;;24.09;78.64;100276.77;1815421;78;25822;-75
2022/08/20 08:02:27;;;;;;;17.37;10.80;;;;;;;24.13;78.84;100279.20;1819605;78;27416;-75
2022/08/20 08:04:54;;;;;;;18.35;10.90;;;;;;;24.22;78.76;100272.58;1798660;78;25896;-75
2022/08/20 08:07:22;;;;;;;24.72;13.72;;;;;;;24.30;78.43;100287.02;1804645;78;25818;-76
2022/08/20 08:09:49;;;;;;;23.75;12.70;;;;;;;24.35;78.33;100287.00;1817371;78;26170;-75
2022/08/20 08:12:16;;;;;;;34.80;14.43;;;;;;;24.40;78.14;100285.03;1842047;77;25673;-75
2022/08/20 08:14:45;;;;;;;17.73;11.60;;;;;;;24.48;78.58;100283.08;1834574;77;27452;-75
2022/08/20 08:17:12;;;;;;;22.32;11.73;;;;;;;24.59;78.48;100281.07;1834375;77;25888;-76
2022/08/20 08:19:43;;;;;;;20.75;11.68;;;;;;;24.68;78.46;100278.53;1839614;77;25806;-75
2022/08/20 08:22:14;;;;;;;17.80;11.08;;;;;;;24.76;78.10;100284.24;1841382;77;25741;-75
2022/08/20 08:24:42;;;;;;;16.62;11.15;;;;;;;24.82;77.90;100286.38;1848970;77;26010;-75
2022/08/20 08:27:10;;;;;;;24.40;11.65;;;;;;;24.90;78.09;100287.11;1844795;77;27457;-76
2022/08/20 08:29:36;;;;;;;15.90;11.22;;;;;;;24.98;77.39;100283.73;1847802;77;25549;-76
2022/08/20 08:32:05;;;;;;;17.60;12.00;;;;;;;25.07;77.47;100284.20;1809509;78;25763;-76
2022/08/20 08:34:34;;;;;;;15.20;11.05;;;;;;;25.17;77.53;100278.61;1812971;78;26582;-75
2022/08/20 08:37:05;;;;;;;18.20;11.25;;;;;;;25.30;77.76;100280.41;1814140;78;26500;-75
2022/08/20 08:39:30;;;;;;;17.98;10.60;;;;;;;25.43;77.19;100281.13;1804006;78;28235;-76
2022/08/20 08:42:01;;;;;;;21.77;11.05;;;;;;;25.53;76.65;100270.84;1827411;78;26008;-75
2022/08/20 08:44:39;;;;;;;15.32;9.73;;;;;;;25.67;76.56;100276.41;1814013;78;26414;-76
2022/08/20 08:47:17;;;;;;;17.00;9.73;;;;;;;25.79;75.76;100272.71;1825120;78;26650;-75
2022/08/20 08:49:42;;;;;;;16.80;10.20;;;;;;;25.91;75.77;100267.05;1823817;78;25767;-75
2022/08/20 08:52:31;;;;;;;18.87;10.13;;;;;;;26.08;75.78;100271.19;1813098;78;27434;-76
2022/08/20 08:55:02;;;;;;;17.12;8.93;;;;;;;26.19;75.26;100277.66;1818915;78;25644;-76
2022/08/20 08:57:29;;;;;;;15.38;8.68;;;;;;;26.36;75.57;100274.37;1809110;78;25574;-76
2022/08/20 09:00:14;;;;;;;17.57;8.98;;;;;;;26.47;73.96;100273.11;1819330;78;25915;-75
2022/08/20 09:03:03;;;;;;;9.88;7.90;;;;;;;26.58;74.05;100273.20;1807942;78;25577;-75
2022/08/20 09:05:35;;;;;;;14.90;9.60;;;;;;;26.68;73.30;100281.27;1815247;78;27514;-75
2022/08/20 09:08:05;;;;;;;18.85;9.10;;;;;;;26.76;72.82;100281.98;1812972;78;25806;-75
2022/08/20 09:10:32;;;;;;;15.20;8.63;;;;;;;26.86;72.25;100288.66;1821002;78;35300;-76
2022/08/20 09:13:00;;;;;;;12.35;8.08;;;;;;;26.93;71.65;100287.72;1809296;78;25859;-75
2022/08/20 09:15:26;;;;;;;15.45;7.87;;;;;;;27.02;72.12;100293.34;1812100;78;26461;-76
2022/08/20 09:17:52;;;;;;;20.30;9.78;;;;;;;27.11;71.66;100296.48;1823061;78;27427;-75
2022/08/20 09:20:19;;;;;;;13.85;8.93;;;;;;;27.16;71.18;100297.74;1807039;78;25940;-75
2022/08/20 09:22:45;;;;;;;12.58;8.58;;;;;;;27.22;71.07;100296.52;1815532;78;25331;-76
2022/08/20 09:25:13;;;;;;;10.15;7.70;;;;;;;27.27;70.87;100292.31;1815910;78;44706;-75
2022/08/20 09:27:39;;;;;;;11.48;7.33;;;;;;;27.34;69.42;100289.16;1821964;78;25721;-76
2022/08/20 09:30:07;;;;;;;13.58;7.60;;;;;;;27.40;69.03;100290.72;1818877;77;27415;-76
2022/08/20 09:32:33;;;;;;;18.17;6.83;;;;;;;27.43;68.30;100292.31;1823376;77;25745;-75
2022/08/20 09:35:00;;;;;;;14.03;7.00;;;;;;;27.48;67.94;100283.94;1820277;78;26524;-76
2022/08/20 09:37:30;;;;;;;12.33;6.37;;;;;;;27.57;67.22;100289.55;1811077;78;25777;-76
2022/08/20 09:39:57;;;;;;;11.87;7.00;;;;;;;27.66;66.99;100281.39;1816151;78;26402;-75
2022/08/20 09:42:30;;;;;;;19.42;8.38;;;;;;;27.72;66.78;100280.16;1816998;78;27490;-75
2022/08/20 09:44:57;;;;;;;11.08;6.45;;;;;;;27.77;66.47;100282.25;1825659;78;25553;-75
2022/08/20 09:47:25;;;;;;;17.37;6.62;;;;;;;27.84;66.34;100276.33;1813980;78;25750;-76
2022/08/20 09:49:53;;;;;;;9.35;6.78;;;;;;;27.88;65.62;100276.79;1817713;78;25970;-75
2022/08/20 09:52:30;;;;;;;13.60;6.35;;;;;;;27.93;65.84;100271.73;1814728;78;25886;-76
2022/08/20 09:55:04;;;;;;;11.15;6.42;;;;;;;27.99;65.55;100271.91;1825874;78;27437;-76
2022/08/20 09:57:31;;;;;;;13.70;7.28;;;;;;;28.03;65.06;100268.78;1810624;78;25786;-76
2022/08/20 10:00:02;;;;;;;16.65;6.92;;;;;;;28.07;64.76;100271.98;1822134;78;26358;-75
2022/08/20 10:02:30;;;;;;;13.72;6.95;;;;;;;28.13;64.99;100276.25;1803238;78;25854;-75
2022/08/20 10:04:57;;;;;;;17.67;6.37;;;;;;;28.19;64.24;100275.55;1817810;78;25809;-76
2022/08/20 10:07:23;;;;;;;12.78;6.35;;;;;;;28.24;64.36;100275.44;1811133;78;28265;-76
2022/08/20 10:09:49;;;;;;;11.38;6.62;;;;;;;28.33;64.59;100270.83;1821211;78;25945;-76
2022/08/20 10:12:16;;;;;;;11.03;6.58;;;;;;;28.40;64.08;100267.64;1814061;78;25760;-76
2022/08/20 10:14:42;;;;;;;10.43;6.92;;;;;;;28.46;63.72;100269.14;1816953;78;26683;-76
2022/08/20 10:17:08;;;;;;;11.12;6.33;;;;;;;28.50;63.76;100275.09;1815593;78;26159;-76
2022/08/20 10:19:35;;;;;;;10.63;6.20;;;;;;;28.57;63.91;100269.97;1818126;78;27438;-76
2022/08/20 10:22:02;;;;;;;11.15;6.12;;;;;;;28.64;64.07;100268.15;1821346;77;25891;-77
2022/08/20 10:24:29;;;;;;;13.85;6.53;;;;;;;28.71;63.70;100272.11;1812979;78;25788;-76
2022/08/20 10:26:58;;;;;;;14.70;6.70;;;;;;;28.75;63.32;100268.15;1818955;78;26439;-76
2022/08/20 10:29:26;;;;;;;8.20;6.35;;;;;;;28.79;63.26;100269.97;1817992;78;26387;-77
2022/08/20 10:31:55;;;;;;;13.03;6.58;;;;;;;28.85;63.36;100266.50;1819897;78;27523;-75
2022/08/20 10:34:23;;;;;;;9.95;6.40;;;;;;;28.86;62.64;100267.58;1820972;78;26438;-76
2022/08/20 10:36:50;;;;;;;11.55;6.85;;;;;;;28.91;62.77;100270.78;1816680;78;26189;-76
2022/08/20 10:39:16;;;;;;;10.28;6.62;;;;;;;28.95;63.39;100273.97;1822532;78;26310;-76
2022/08/20 10:41:43;;;;;;;11.85;6.03;;;;;;;28.99;63.04;100268.06;1820774;77;26351;-77
2022/08/20 10:44:09;;;;;;;9.13;5.75;;;;;;;29.06;63.12;100268.99;1821953;78;27623;-77
2022/08/20 10:46:35;;;;;;;10.53;6.10;;;;;;;29.11;62.40;100270.77;1811158;77;26545;-77
2022/08/20 10:49:02;;;;;;;11.15;6.47;;;;;;;29.15;62.17;100265.69;1780248;79;25869;-77
2022/08/20 10:51:28;;;;;;;8.10;5.58;;;;;;;29.17;61.99;100264.84;1783985;79;25846;-77
2022/08/20 10:53:54;;;;;;;13.20;6.22;;;;;;;29.22;61.91;100270.78;1809079;78;26345;-79
2022/08/20 10:56:22;;;;;;;12.63;6.62;;;;;;;29.29;61.51;100262.87;1789804;78;27497;-78
2022/08/20 10:58:48;;;;;;;15.08;7.03;;;;;;;29.36;62.13;100269.53;1773896;79;25745;-76
2022/08/20 11:01:14;;;;;;;9.58;6.28;;;;;;;29.45;61.70;100270.39;1797249;78;25765;-76
2022/08/20 11:03:40;;;;;;;9.33;5.75;;;;;;;29.50;60.68;100268.05;1785254;78;25761;-75
2022/08/20 11:06:07;;;;;;;10.63;5.92;;;;;;;29.55;61.28;100269.30;1800358;78;25816;-75
2022/08/20 11:08:33;;;;;;;11.03;6.70;;;;;;;29.61;61.13;100261.94;1791901;78;27505;-75
2022/08/20 11:10:59;;;;;;;14.87;6.58;;;;;;;29.65;61.08;100256.02;1781279;79;25897;-76
2022/08/20 11:13:26;;;;;;;12.05;5.87;;;;;;;29.72;60.88;100253.60;1798926;78;26365;-76
2022/08/20 11:15:52;;;;;;;7.75;6.83;;;;;;;29.76;60.92;100248.27;1786734;79;25778;-75
2022/08/20 11:18:18;;;;;;;9.68;6.60;;;;;;;29.80;60.18;100244.28;1751133;79;25986;-75
2022/08/20 11:20:45;;;;;;;9.50;6.00;;;;;;;29.83;59.89;100240.89;1785175;79;27444;-75
2022/08/20 11:23:11;;;;;;;11.50;6.42;;;;;;;29.84;59.52;100236.98;1769505;79;26393;-76
2022/08/20 11:25:37;;;;;;;14.95;6.87;;;;;;;29.87;59.49;100234.96;1750900;79;26395;-76
2022/08/20 11:28:05;;;;;;;13.75;6.42;;;;;;;29.91;59.20;100237.32;1787130;78;25825;-76
2022/08/20 11:30:35;;;;;;;11.28;7.03;;;;;;;29.95;59.71;100239.11;1775668;78;25908;-75
2022/08/20 11:33:03;;;;;;;14.78;7.22;;;;;;;30.02;58.94;100239.45;1790771;78;27524;-76
2022/08/20 11:35:33;;;;;;;14.33;7.40;;;;;;;30.08;58.90;100238.71;1774630;78;26429;-76